createdAt,value
2023-02-01T00:00:35.507Z,6.05
2023-02-01T00:03:02.203Z,5.78
2023-02-01T00:05:28.721Z,8.57
2023-02-01T00:07:55.231Z,8.82
2023-02-01T00:10:21.968Z,7.07
2023-02-01T00:12:48.585Z,5.18
2023-02-01T00:15:15.321Z,5.25
2023-02-01T00:17:41.844Z,7.75
2023-02-01T00:20:09.212Z,5.72
2023-02-01T00:22:35.742Z,5.50
2023-02-01T00:25:02.212Z,5.75
2023-02-01T00:27:28.807Z,7.25
2023-02-01T00:29:56.529Z,6.60
2023-02-01T00:32:23.248Z,5.40
2023-02-01T00:34:49.764Z,11.68
2023-02-01T00:37:16.275Z,5.28
2023-02-01T00:39:42.751Z,8.57
2023-02-01T00:42:09.487Z,7.78
2023-02-01T00:44:36.784Z,4.40
2023-02-01T00:47:03.315Z,4.20
2023-02-01T00:49:30.098Z,5.65
2023-02-01T00:51:56.769Z,5.22
2023-02-01T00:54:23.762Z,7.05
2023-02-01T00:56:50.377Z,7.57
2023-02-01T00:59:18.757Z,5.90
2023-02-01T01:01:45.384Z,5.68
2023-02-01T01:04:11.976Z,6.25
2023-02-01T01:06:38.601Z,8.02
2023-02-01T01:09:08.074Z,8.10
2023-02-01T01:11:37.672Z,7.07
2023-02-01T01:14:08.271Z,6.78
2023-02-01T01:16:35.823Z,7.50
2023-02-01T01:19:02.699Z,6.38
2023-02-01T01:21:30.717Z,6.07
2023-02-01T01:23:57.578Z,11.07
2023-02-01T01:26:26.998Z,7.63
2023-02-01T01:28:56.519Z,8.82
2023-02-01T01:31:23.454Z,8.45
2023-02-01T01:33:52.585Z,6.22
2023-02-01T01:36:19.910Z,4.97
2023-02-01T01:38:46.882Z,6.78
2023-02-01T01:41:20.691Z,11.15
2023-02-01T01:43:58.392Z,7.90
2023-02-01T01:46:32.190Z,7.10
2023-02-01T01:49:05.313Z,7.10
2023-02-01T01:51:38.630Z,7.03
2023-02-01T01:54:13.696Z,7.57
2023-02-01T01:56:42.017Z,8.15
2023-02-01T01:59:09.834Z,10.85
2023-02-01T02:01:36.621Z,9.80
2023-02-01T02:04:03.932Z,10.27
2023-02-01T02:06:39.795Z,9.70
2023-02-01T02:09:07.168Z,9.10
2023-02-01T02:11:33.986Z,11.02
2023-02-01T02:14:01.059Z,6.22
2023-02-01T02:17:01.490Z,5.88
2023-02-01T02:20:06.107Z,8.73
2023-02-01T02:22:44.927Z,6.28
2023-02-01T02:25:53.247Z,8.52
2023-02-01T02:28:52.737Z,7.93
2023-02-01T02:31:42.164Z,7.63
2023-02-01T02:34:21.336Z,9.27
2023-02-01T02:37:06.362Z,11.00
2023-02-01T02:39:43.955Z,9.90
2023-02-01T02:42:34.683Z,8.63
2023-02-01T02:45:32.803Z,7.88
2023-02-01T02:48:02.377Z,10.07
2023-02-01T02:50:54.549Z,10.27
2023-02-01T02:53:51.423Z,8.13
2023-02-01T02:56:39.627Z,9.98
2023-02-01T02:59:28.162Z,8.05
2023-02-01T03:02:14.370Z,7.88
2023-02-01T03:04:41.503Z,9.32
2023-02-01T03:07:35.873Z,5.68
2023-02-01T03:10:11.544Z,8.02
2023-02-01T03:12:57.261Z,7.85
2023-02-01T03:15:31.840Z,5.30
2023-02-01T03:18:00.139Z,7.55
2023-02-01T03:20:28.586Z,8.32
2023-02-01T03:22:56.385Z,4.50
2023-02-01T03:25:28.474Z,10.15
2023-02-01T03:28:02.937Z,8.38
2023-02-01T03:30:35.655Z,8.93
2023-02-01T03:33:08.312Z,7.50
2023-02-01T03:35:45.612Z,10.63
2023-02-01T03:38:18.530Z,9.73
2023-02-01T03:40:49.732Z,8.52
2023-02-01T03:43:19.773Z,8.93
2023-02-01T03:45:51.876Z,9.18
2023-02-01T03:48:19.814Z,9.65
2023-02-01T03:50:51.672Z,8.80
2023-02-01T03:53:21.685Z,9.63
2023-02-01T03:55:49.218Z,6.25
2023-02-01T03:58:20.120Z,8.25
2023-02-01T04:00:52.816Z,9.05
2023-02-01T04:03:19.438Z,7.97
2023-02-01T04:05:46.323Z,10.30
2023-02-01T04:08:12.856Z,9.20
2023-02-01T04:10:39.424Z,9.27
2023-02-01T04:13:06.490Z,7.95
2023-02-01T04:15:33.130Z,6.57
2023-02-01T04:17:59.574Z,6.43
2023-02-01T04:20:26.202Z,7.07
2023-02-01T04:22:52.709Z,8.75
2023-02-01T04:25:19.327Z,9.85
2023-02-01T04:27:46.864Z,8.85
2023-02-01T04:30:14.810Z,9.68
2023-02-01T04:32:41.273Z,4.93
2023-02-01T04:35:08.282Z,8.18
2023-02-01T04:37:35.556Z,7.80
2023-02-01T04:40:04.593Z,7.95
2023-02-01T04:42:31.148Z,6.65
2023-02-01T04:44:57.685Z,9.13
2023-02-01T04:47:24.132Z,6.22
2023-02-01T04:49:50.649Z,8.15
2023-02-01T04:52:17.098Z,8.25
2023-02-01T04:54:43.619Z,8.90
2023-02-01T04:57:10.403Z,9.43
2023-02-01T04:59:36.889Z,8.25
2023-02-01T05:02:03.383Z,7.70
2023-02-01T05:04:29.932Z,7.85
2023-02-01T05:06:56.410Z,8.38
2023-02-01T05:09:22.969Z,6.35
2023-02-01T05:12:08.041Z,5.78
2023-02-01T05:14:34.654Z,5.57
2023-02-01T05:17:01.082Z,6.78
2023-02-01T05:19:27.570Z,8.38
2023-02-01T05:21:54.009Z,6.38
2023-02-01T05:24:20.747Z,8.98
2023-02-01T05:26:49.039Z,7.60
2023-02-01T05:29:17.131Z,12.27
2023-02-01T05:31:46.319Z,9.05
2023-02-01T05:34:12.954Z,9.68
2023-02-01T05:36:39.416Z,11.55
2023-02-01T05:39:05.937Z,15.32
2023-02-01T05:41:32.984Z,11.77
2023-02-01T05:43:59.475Z,12.38
2023-02-01T05:46:26.089Z,12.20
2023-02-01T05:48:52.590Z,10.23
2023-02-01T05:51:19.104Z,11.93
2023-02-01T05:53:45.629Z,9.93
2023-02-01T05:56:12.201Z,15.75
2023-02-01T05:58:38.749Z,12.73
2023-02-01T06:01:05.673Z,13.18
2023-02-01T06:03:32.299Z,9.40
2023-02-01T06:05:58.873Z,9.02
2023-02-01T06:08:26.686Z,10.93
2023-02-01T06:11:00.139Z,11.00
2023-02-01T06:13:27.229Z,12.98
2023-02-01T06:15:53.825Z,10.15
2023-02-01T06:18:20.516Z,7.93
2023-02-01T06:20:55.636Z,8.80
2023-02-01T06:23:24.644Z,10.25
2023-02-01T06:25:59.372Z,8.43
2023-02-01T06:28:26.357Z,11.68
2023-02-01T06:30:52.894Z,8.90
2023-02-01T06:33:19.459Z,13.88
2023-02-01T06:35:46.401Z,8.43
2023-02-01T06:38:12.964Z,16.48
2023-02-01T06:40:40.888Z,11.85
2023-02-01T06:43:07.367Z,9.80
2023-02-01T06:45:33.911Z,9.55
2023-02-01T06:48:01.487Z,12.82
2023-02-01T06:50:28.594Z,10.60
2023-02-01T06:52:56.133Z,15.20
2023-02-01T06:55:22.688Z,14.57
2023-02-01T06:57:53.465Z,16.85
2023-02-01T07:00:20.730Z,19.80
2023-02-01T07:02:47.190Z,14.02
2023-02-01T07:05:13.703Z,17.00
2023-02-01T07:07:40.185Z,10.32
2023-02-01T07:10:07.078Z,10.48
2023-02-01T07:12:33.720Z,9.30
2023-02-01T07:15:00.228Z,7.88
2023-02-01T07:17:26.729Z,9.10
2023-02-01T07:19:53.382Z,11.25
2023-02-01T07:22:19.966Z,13.82
2023-02-01T07:24:46.463Z,13.90
2023-02-01T07:27:13.636Z,14.82
2023-02-01T07:29:40.144Z,14.00
2023-02-01T07:32:06.639Z,16.33
2023-02-01T07:34:33.860Z,17.60
2023-02-01T07:37:00.325Z,20.00
2023-02-01T07:39:29.181Z,26.10
2023-02-01T07:41:57.521Z,17.80
2023-02-01T07:44:24.212Z,18.40
2023-02-01T07:46:51.243Z,18.95
2023-02-01T07:49:18.522Z,18.10
2023-02-01T07:51:45.097Z,18.88
2023-02-01T07:54:11.563Z,15.07
2023-02-01T07:56:38.081Z,21.20
2023-02-01T07:59:04.700Z,16.10
2023-02-01T08:01:31.198Z,15.50
2023-02-01T08:04:00.304Z,14.43
2023-02-01T08:06:28.431Z,18.10
2023-02-01T08:08:55.409Z,19.15
2023-02-01T08:11:26.523Z,21.25
2023-02-01T08:13:53.928Z,14.05
2023-02-01T08:16:22.083Z,17.02
2023-02-01T08:18:48.735Z,19.58
2023-02-01T08:21:22.919Z,17.45
2023-02-01T08:23:49.540Z,20.95
2023-02-01T08:26:23.246Z,15.20
2023-02-01T08:28:58.933Z,13.43
2023-02-01T08:31:27.178Z,17.52
2023-02-01T08:33:59.102Z,15.10
2023-02-01T08:36:27.286Z,13.93
2023-02-01T08:38:54.189Z,17.45
2023-02-01T08:41:24.034Z,11.00
2023-02-01T08:43:50.608Z,16.98
2023-02-01T08:46:17.907Z,12.40
2023-02-01T08:48:46.605Z,16.08
2023-02-01T08:51:14.517Z,17.20
2023-02-01T08:53:42.301Z,15.77
2023-02-01T08:56:10.840Z,15.63
2023-02-01T08:58:37.545Z,19.75
2023-02-01T09:01:09.608Z,16.55
2023-02-01T09:03:36.254Z,12.52
2023-02-01T09:06:04.830Z,12.82
2023-02-01T09:08:32.006Z,21.25
2023-02-01T09:11:03.543Z,15.38
2023-02-01T09:13:30.379Z,25.30
2023-02-01T09:15:56.983Z,20.40
2023-02-01T09:18:23.651Z,13.93
2023-02-01T09:20:50.210Z,17.05
2023-02-01T09:23:16.791Z,14.02
2023-02-01T09:25:43.373Z,25.23
2023-02-01T09:28:10.127Z,20.08
2023-02-01T09:30:38.038Z,16.80
2023-02-01T09:33:05.122Z,16.58
2023-02-01T09:35:31.785Z,15.93
2023-02-01T09:37:58.296Z,16.08
2023-02-01T09:40:25.420Z,14.48
2023-02-01T09:43:20.736Z,14.63
2023-02-01T09:46:22.200Z,19.50
2023-02-01T09:48:52.197Z,14.30
2023-02-01T09:51:24.500Z,13.55
2023-02-01T09:54:15.186Z,17.20
2023-02-01T09:56:48.008Z,15.48
2023-02-01T09:59:29.791Z,17.02
2023-02-01T10:01:56.781Z,14.65
2023-02-01T10:04:23.889Z,20.67
2023-02-01T10:07:05.643Z,17.77
2023-02-01T10:09:39.565Z,15.02
2023-02-01T10:12:25.534Z,16.38
2023-02-01T10:15:07.344Z,14.88
2023-02-01T10:17:57.283Z,22.35
2023-02-01T10:20:29.775Z,23.35
2023-02-01T10:23:34.133Z,19.30
2023-02-01T10:26:21.650Z,19.65
2023-02-01T10:28:51.726Z,17.88
2023-02-01T10:31:19.559Z,16.80
2023-02-01T10:33:49.354Z,18.35
2023-02-01T10:36:41.636Z,14.85
2023-02-01T10:39:12.943Z,18.17
2023-02-01T10:41:41.526Z,16.65
2023-02-01T10:44:15.148Z,14.38
2023-02-01T10:46:42.161Z,13.07
2023-02-01T10:49:16.431Z,16.50
2023-02-01T10:54:35.211Z,13.15
2023-02-01T10:57:01.843Z,14.90
2023-02-01T10:59:30.077Z,14.40
2023-02-01T11:02:14.296Z,21.77
2023-02-01T11:04:40.879Z,14.27
2023-02-01T11:07:08.607Z,16.13
2023-02-01T11:09:41.360Z,15.05
2023-02-01T11:12:25.776Z,14.27
2023-02-01T11:17:36.187Z,20.73
2023-02-01T11:20:15.517Z,18.75
2023-02-01T11:22:48.535Z,11.40
2023-02-01T11:25:18.434Z,16.20
2023-02-01T11:27:54.513Z,17.48
2023-02-01T11:30:56.092Z,15.50
2023-02-01T11:33:30.826Z,18.88
2023-02-01T11:35:59.442Z,12.38
2023-02-01T11:38:31.418Z,9.85
2023-02-01T11:41:21.919Z,19.65
2023-02-01T11:44:00.614Z,16.38
2023-02-01T11:46:33.424Z,17.90
2023-02-01T11:49:26.111Z,12.70
2023-02-01T11:52:15.350Z,15.98
2023-02-01T11:54:53.925Z,21.88
2023-02-01T11:57:30.021Z,16.88
2023-02-01T12:00:25.243Z,14.35
2023-02-01T12:03:04.429Z,16.42
2023-02-01T12:05:40.641Z,12.98
2023-02-01T12:08:28.212Z,16.48
2023-02-01T12:11:30.906Z,12.82
2023-02-01T12:14:08.423Z,14.80
2023-02-01T12:16:52.440Z,10.43
2023-02-01T12:19:30.333Z,13.93
2023-02-01T12:22:19.624Z,15.68
2023-02-01T12:25:02.783Z,18.00
2023-02-01T12:28:01.975Z,14.13
2023-02-01T12:30:46.797Z,14.73
2023-02-01T12:33:46.855Z,13.38
2023-02-01T12:36:49.365Z,15.43
2023-02-01T12:39:39.531Z,14.43
2023-02-01T12:42:32.407Z,12.25
2023-02-01T12:45:13.819Z,13.38
2023-02-01T12:47:50.993Z,13.60
2023-02-01T12:50:29.359Z,15.07
2023-02-01T12:53:07.525Z,10.88
2023-02-01T12:55:39.361Z,11.82
2023-02-01T12:58:12.530Z,15.18
2023-02-01T13:00:44.504Z,16.40
2023-02-01T13:03:45.218Z,14.20
2023-02-01T13:06:24.000Z,12.50
2023-02-01T13:09:11.830Z,13.88
2023-02-01T13:11:39.976Z,18.17
2023-02-01T13:14:28.988Z,13.52
2023-02-01T13:17:02.843Z,10.70
2023-02-01T13:19:47.901Z,10.73
2023-02-01T13:22:21.243Z,10.18
2023-02-01T13:24:55.194Z,8.98
2023-02-01T13:27:22.674Z,18.15
2023-02-01T13:29:57.557Z,12.93
2023-02-01T13:33:51.380Z,14.30
2023-02-01T13:35:55.525Z,14.23
2023-02-01T13:38:35.494Z,15.25
2023-02-01T13:41:31.819Z,14.85
2023-02-01T13:44:11.930Z,15.93
2023-02-01T13:46:45.160Z,15.07
2023-02-01T13:49:33.564Z,17.05
2023-02-01T13:52:00.548Z,13.60
2023-02-01T13:54:29.993Z,12.52
2023-02-01T13:56:59.866Z,12.07
2023-02-01T13:59:41.534Z,19.52
2023-02-01T14:02:39.083Z,17.70
2023-02-01T14:05:09.781Z,18.90
2023-02-01T14:07:36.663Z,11.38
2023-02-01T14:10:40.681Z,13.85
2023-02-01T14:13:33.391Z,12.25
2023-02-01T14:16:05.854Z,17.05
2023-02-01T14:18:38.709Z,12.82
2023-02-01T14:21:37.196Z,12.32
2023-02-01T14:24:21.317Z,15.00
2023-02-01T14:26:50.232Z,12.05
2023-02-01T14:29:20.876Z,10.63
2023-02-01T14:32:00.729Z,13.98
2023-02-01T14:34:48.625Z,12.75
2023-02-01T14:37:18.187Z,14.82
2023-02-01T14:39:47.711Z,18.27
2023-02-01T14:42:23.247Z,12.18
2023-02-01T14:44:59.429Z,15.05
2023-02-01T14:47:29.948Z,13.77
2023-02-01T14:50:04.046Z,14.70
2023-02-01T14:52:50.965Z,17.42
2023-02-01T14:55:30.713Z,14.38
2023-02-01T14:58:01.751Z,9.48
2023-02-01T15:00:30.825Z,18.63
2023-02-01T15:03:25.502Z,11.65
2023-02-01T15:08:31.141Z,15.73
2023-02-01T15:11:02.156Z,10.55
2023-02-01T15:13:29.987Z,10.70
2023-02-01T15:16:13.197Z,13.35
2023-02-01T15:18:40.453Z,15.60
2023-02-01T15:21:27.434Z,14.68
2023-02-01T15:24:15.592Z,12.43
2023-02-01T15:26:42.350Z,12.90
2023-02-01T15:29:14.226Z,12.70
2023-02-01T15:31:45.660Z,13.35
2023-02-01T15:34:16.103Z,12.80
2023-02-01T15:37:00.393Z,16.92
2023-02-01T15:39:30.422Z,14.02
2023-02-01T15:42:02.879Z,10.65
2023-02-01T15:44:43.569Z,21.33
2023-02-01T15:47:17.699Z,13.80
2023-02-01T15:49:47.556Z,14.52
2023-02-01T15:52:35.488Z,10.45
2023-02-01T15:55:08.428Z,13.73
2023-02-01T15:57:40.358Z,15.20
2023-02-01T16:00:23.198Z,12.90
2023-02-01T16:02:55.592Z,11.35
2023-02-01T16:05:30.875Z,14.80
2023-02-01T16:08:05.314Z,13.52
2023-02-01T16:10:33.202Z,15.48
2023-02-01T16:13:01.263Z,15.35
2023-02-01T16:15:31.368Z,9.32
2023-02-01T16:17:57.936Z,13.60
2023-02-01T16:20:24.919Z,12.75
2023-02-01T16:22:51.854Z,14.07
2023-02-01T16:25:18.391Z,14.95
2023-02-01T16:27:44.903Z,14.48
2023-02-01T16:30:12.553Z,9.65
2023-02-01T16:32:39.253Z,11.45
2023-02-01T16:35:42.993Z,15.15
2023-02-01T16:38:16.309Z,15.20
2023-02-01T16:40:44.322Z,18.60
2023-02-01T16:43:19.297Z,11.50
2023-02-01T16:45:49.305Z,20.75
2023-02-01T16:48:27.313Z,21.88
2023-02-01T16:50:57.709Z,15.20
2023-02-01T16:53:26.997Z,21.00
2023-02-01T16:55:53.632Z,23.30
2023-02-01T16:58:21.462Z,18.20
2023-02-01T17:00:50.250Z,14.32
2023-02-01T17:03:20.039Z,36.38
2023-02-01T17:05:49.400Z,32.28
2023-02-01T17:08:35.260Z,14.02
2023-02-01T17:11:02.820Z,12.48
2023-02-01T17:13:29.651Z,13.43
2023-02-01T17:16:00.943Z,14.98
2023-02-01T17:18:31.678Z,13.85
2023-02-01T17:21:03.086Z,15.60
2023-02-01T17:23:30.696Z,9.50
2023-02-01T17:25:57.816Z,9.90
2023-02-01T17:28:25.086Z,13.60
2023-02-01T17:30:51.798Z,14.75
2023-02-01T17:33:36.060Z,14.38
2023-02-01T17:36:04.703Z,17.67
2023-02-01T17:38:31.476Z,12.10
2023-02-01T17:40:58.039Z,11.00
2023-02-01T17:43:26.076Z,12.35
2023-02-01T17:45:56.272Z,10.13
2023-02-01T17:48:23.654Z,15.20
2023-02-01T17:50:54.671Z,12.27
2023-02-01T17:53:24.497Z,20.92
2023-02-01T17:55:52.682Z,16.42
2023-02-01T17:58:20.016Z,19.05
2023-02-01T18:00:48.065Z,19.00
2023-02-01T18:03:26.945Z,20.05
2023-02-01T18:05:55.713Z,15.68
2023-02-01T18:08:24.810Z,20.25
2023-02-01T18:10:54.389Z,17.35
2023-02-01T18:13:21.480Z,20.55
2023-02-01T18:15:48.938Z,13.73
2023-02-01T18:18:15.617Z,12.02
2023-02-01T18:20:44.198Z,16.90
2023-02-01T18:23:18.810Z,16.13
2023-02-01T18:25:47.135Z,15.20
2023-02-01T18:28:15.637Z,14.45
2023-02-01T18:30:44.747Z,20.00
2023-02-01T18:33:16.300Z,16.25
2023-02-01T18:35:43.542Z,17.50
2023-02-01T18:38:10.721Z,20.30
2023-02-01T18:40:46.359Z,19.35
2023-02-01T18:43:14.065Z,17.65
2023-02-01T18:45:42.278Z,14.57
2023-02-01T18:48:10.614Z,15.90
2023-02-01T18:50:40.066Z,17.20
2023-02-01T18:53:13.295Z,13.45
2023-02-01T18:55:40.190Z,16.37
2023-02-01T18:58:07.352Z,14.43
2023-02-01T19:00:35.393Z,12.68
2023-02-01T19:03:02.073Z,13.35
2023-02-01T19:05:28.752Z,14.38
2023-02-01T19:07:55.220Z,25.30
2023-02-01T19:10:23.664Z,15.90
2023-02-01T19:12:51.959Z,15.50
2023-02-01T19:15:18.803Z,16.38
2023-02-01T19:17:47.234Z,15.98
2023-02-01T19:20:16.371Z,15.70
2023-02-01T19:22:43.065Z,13.25
2023-02-01T19:25:13.387Z,17.20
2023-02-01T19:27:40.015Z,12.32
2023-02-01T19:30:07.210Z,14.50
2023-02-01T19:32:34.012Z,15.38
2023-02-01T19:35:00.570Z,17.42
2023-02-01T19:37:27.090Z,18.83
2023-02-01T19:39:53.572Z,18.30
2023-02-01T19:42:20.322Z,24.52
2023-02-01T19:44:46.968Z,18.92
2023-02-01T19:47:13.493Z,16.55
2023-02-01T19:49:41.831Z,17.05
2023-02-01T19:52:08.457Z,17.20
2023-02-01T19:54:35.283Z,20.80
2023-02-01T19:57:01.915Z,33.47
2023-02-01T19:59:28.601Z,21.05
2023-02-01T20:01:54.895Z,19.05
2023-02-01T20:04:21.743Z,21.75
2023-02-01T20:06:49.126Z,19.30
2023-02-01T20:09:17.789Z,13.90
2023-02-01T20:11:44.914Z,12.82
2023-02-01T20:14:12.368Z,21.50
2023-02-01T20:16:40.390Z,21.70
2023-02-01T20:19:09.203Z,13.70
2023-02-01T20:21:37.112Z,15.40
2023-02-01T20:24:06.743Z,16.73
2023-02-01T20:26:34.528Z,22.52
2023-02-01T20:29:01.951Z,20.42
2023-02-01T20:31:29.833Z,15.00
2023-02-01T20:33:57.395Z,15.23
2023-02-01T20:36:26.309Z,19.38
2023-02-01T20:38:54.394Z,14.52
2023-02-01T20:41:21.412Z,17.38
2023-02-01T20:43:48.774Z,14.18
2023-02-01T20:46:15.986Z,20.85
2023-02-01T20:48:44.369Z,23.02
2023-02-01T20:51:12.253Z,12.15
2023-02-01T20:53:39.863Z,23.08
2023-02-01T20:56:07.573Z,20.48
2023-02-01T20:58:34.632Z,19.85
2023-02-01T21:01:01.384Z,20.42
2023-02-01T21:03:27.936Z,14.23
2023-02-01T21:05:57.631Z,15.70
2023-02-01T21:08:25.260Z,14.90
2023-02-01T21:10:59.429Z,14.05
2023-02-01T21:13:27.797Z,16.90
2023-02-01T21:15:54.431Z,13.65
2023-02-01T21:18:21.513Z,18.73
2023-02-01T21:20:48.169Z,22.45
2023-02-01T21:23:16.073Z,11.60
2023-02-01T21:25:44.267Z,18.77
2023-02-01T21:28:11.403Z,13.30
2023-02-01T21:30:38.449Z,30.25
2023-02-01T21:33:05.944Z,17.88
2023-02-01T21:35:32.475Z,16.23
2023-02-01T21:37:59.060Z,13.55
2023-02-01T21:40:25.572Z,15.00
2023-02-01T21:42:52.236Z,13.13
2023-02-01T21:45:18.774Z,18.70
2023-02-01T21:47:45.964Z,13.40
2023-02-01T21:50:18.086Z,20.75
2023-02-01T21:52:45.272Z,16.83
2023-02-01T21:55:12.820Z,13.27
2023-02-01T21:57:39.670Z,13.30
2023-02-01T22:00:08.665Z,12.60
2023-02-01T22:02:35.881Z,13.88
2023-02-01T22:05:05.248Z,18.60
2023-02-01T22:07:33.873Z,17.83
2023-02-01T22:10:01.724Z,14.90
2023-02-01T22:12:28.258Z,16.70
2023-02-01T22:14:54.760Z,15.23
2023-02-01T22:17:21.484Z,17.65
2023-02-01T22:19:48.027Z,14.82
2023-02-01T22:22:14.546Z,16.40
2023-02-01T22:24:41.030Z,18.10
2023-02-01T22:27:14.391Z,14.63
2023-02-01T22:29:42.473Z,17.83
2023-02-01T22:32:09.527Z,16.45
2023-02-01T22:34:36.101Z,14.05
2023-02-01T22:37:03.077Z,15.40
2023-02-01T22:39:29.597Z,20.67
2023-02-01T22:41:56.103Z,15.27
2023-02-01T22:44:23.732Z,15.35
2023-02-01T22:46:50.476Z,12.52
2023-02-01T22:49:17.291Z,20.50
2023-02-01T22:51:44.033Z,23.73
2023-02-01T22:54:17.410Z,15.48
2023-02-01T22:56:43.884Z,22.70
2023-02-01T22:59:12.855Z,17.75
2023-02-01T23:01:39.426Z,16.02
2023-02-01T23:04:09.312Z,17.20
2023-02-01T23:06:36.092Z,14.05
2023-02-01T23:09:11.321Z,17.23
2023-02-01T23:11:38.812Z,15.25
2023-02-01T23:14:06.251Z,15.15
2023-02-01T23:16:33.122Z,22.17
2023-02-01T23:19:00.152Z,15.27
2023-02-01T23:21:26.836Z,18.90
2023-02-01T23:23:55.497Z,15.80
2023-02-01T23:26:23.489Z,14.63
2023-02-01T23:28:55.006Z,17.35
2023-02-01T23:31:24.143Z,10.63
2023-02-01T23:33:54.658Z,23.77
2023-02-01T23:36:22.615Z,16.58
2023-02-01T23:38:49.473Z,16.38
2023-02-01T23:41:17.927Z,18.08
2023-02-01T23:44:00.125Z,16.60
2023-02-01T23:46:32.516Z,14.75
2023-02-01T23:49:00.263Z,18.83
2023-02-01T23:51:27.716Z,20.20
2023-02-01T23:53:55.152Z,18.50
2023-02-01T23:56:31.214Z,20.20
2023-02-01T23:58:57.923Z,12.02
